CheckWX is a tool to help pilots better visualize weather data.  It is not intended as a substitute for an official pre-flight weather briefing.

15:36:17 UTC

KAZO TAF
Kalamazoo / Battle Creek International Airport
Kalamazoo, Michigan, USA
KAZO 191140Z 1912/2012 21003KT 5SM BR OVC018 FM191500 21003KT P6SM OVC025 FM192200 28003KT P6SM BKN035 FM200600 21003KT 6SM BR OVC015 FM200900 21003KT 4SM BR VCSH OVC007

Nov-19@
12:00 UTC

Nov-19 @ 12:00 UTC

Nov-19@
15:00 UTC

Nov-19 @ 15:00 UTC

KAZO 191140Z 1912/2012 21003KT 5SM BR OVC018

Expired

Wind
  • 210° at 3 KTS
Conditions
Mist
Cloud Levels
  • Overcast at 1,800' AGL

Nov-19@
15:00 UTC

Nov-19 @ 15:00 UTC

Nov-19@
22:00 UTC

Nov-19 @ 22:00 UTC

FM191500 21003KT P6SM OVC025

From

From Standard forecast or significant change

Wind
  • 210° at 3 KTS
Cloud Levels
  • Overcast at 2,500' AGL

Nov-19@
22:00 UTC

Nov-19 @ 22:00 UTC

Nov-20@
06:00 UTC

Nov-20 @ 06:00 UTC

FM192200 28003KT P6SM BKN035

From

From Standard forecast or significant change

Wind
  • 280° at 3 KTS
Cloud Levels
  • Broken at 3,500' AGL

Nov-20@
06:00 UTC

Nov-20 @ 06:00 UTC

Nov-20@
09:00 UTC

Nov-20 @ 09:00 UTC

FM200600 21003KT 6SM BR OVC015

From

From Standard forecast or significant change

Wind
  • 210° at 3 KTS
Conditions
Mist
Cloud Levels
  • Overcast at 1,500' AGL

Nov-20@
09:00 UTC

Nov-20 @ 09:00 UTC

Nov-20@
12:00 UTC

Nov-20 @ 12:00 UTC

FM200900 21003KT 4SM BR VCSH OVC007

From

From Standard forecast or significant change

Wind
  • 210° at 3 KTS
Conditions
Mist
Cloud Levels
  • Overcast at 700' AGL